Terminal Aerodrome Forecast
Issued by NWS Blacksburg, VA

Home | Current Version | Previous Version | Text Only | Print | Product List | Glossary On
Versions: 1 2 3 4 5 6 7 8 9 10 11 12 13 14 15 16 17 18 19 20 21 22 23 24 25 26 27 28 29 30 31 32
000
FTUS41 KRNK 211720
TAFROA
TAF
KROA 211720Z 2118/2218 VRB03KT 1 1/2SM BR BKN001
     FM212000 14004KT P6SM BKN025
     FM220000 VRB03KT P6SM VCSH SCT003 OVC015
     FM220300 00000KT P6SM VCSH SCT003 OVC008
     FM220600 00000KT 1SM BR OVC008
     FM221100 00000KT 1SM BR VCSH OVC008
     FM221500 10004KT 6SM -SHRA OVC008
     FM221700 10005KT 3SM RA OVC008=

USA.gov is the U.S. government's official web portal to all federal, state and local government web resources and services.